Raleigh County Memorial Airport
KBKW : now visible

Airfield :











YOU CAN JOIN US ON...

 
LOGIN :

Register | Disclaimer

   EN    FR    IT 

 









Legend :    VFR   Marginal VFR   IFR   Intensive IFR   Very Intensive IFR
Visi :
Ceiling :
>= 8 km
>= 3000ft
5 to 8 km
1000 to 3000 ft
1500m to 5 km
500 to 1000 ft
800 to 1500m
200 to 500 ft
< 800m
< 200 ft
Symbols :   Thunderstorms  Fog  Heavy snow  Heavy precipitations  Wind > 20 kt







- Airport Elevation : 2504 ft
- IATA code : BKW


KBKW - Raleigh County Memorial

CURRENT METAR :
  • 181851Z AUTO 18011G22KT 10SM CLR 27/05 A2986 RMK AO2 SLP074 T02720050

EXPIRED METARs :
  • 181751Z AUTO 14012G19KT 10SM CLR 26/05 A2989 RMK AO2 SLP089 60002 T02610050 10261 20122 58026
  • 181651Z AUTO 18016G23KT 10SM CLR 25/06 A2995 RMK AO2 SLP109 T02500061

TAF KBKW
Valid from the 18 at 18:00 until the 19 at 18:00 UTC


181731Z 1818/1918 18011G22KT P6SM FEW150
FM190700 17013G24KT P6SM OVC050
FM191000 17014G27KT P6SM OVC030
FM191400 17013G25KT 5SM -SHRA OVC019
KZID FIR / North America



MET'MAP, your aeronautical weather chart ! - Copyright ORBIFLY December 2007 - Disclaimer

ORBIFLY MET'MAP TEAM :

Programming & Development : Alexandra Zaïnal
Concept & Development : Baudouin d'Aumeries
Co-Development & Prog : Marc-Olivier Méhu
Technical & hardware support : Manuel Goepfert

Contact : metmap@orbifly.com




SOURCES & CREDITS :

   NOAA       Earth
Advisory